createdAt,value
2018-01-02T00:01:53.773Z,4.40
2018-01-02T00:04:26.747Z,4.40
2018-01-02T00:06:57.839Z,4.30
2018-01-02T00:09:28.648Z,4.30
2018-01-02T00:11:59.621Z,4.40
2018-01-02T00:14:30.295Z,4.30
2018-01-02T00:17:03.209Z,4.30
2018-01-02T00:19:35.722Z,4.40
2018-01-02T00:22:06.622Z,4.40
2018-01-02T00:24:37.028Z,4.40
2018-01-02T00:27:07.358Z,4.50
2018-01-02T00:29:43.273Z,4.50
2018-01-02T00:32:13.940Z,4.60
2018-01-02T00:34:44.075Z,4.60
2018-01-02T00:37:14.220Z,4.70
2018-01-02T00:39:46.860Z,4.70
2018-01-02T00:42:17.976Z,4.80
2018-01-02T00:44:48.673Z,4.80
2018-01-02T00:47:19.211Z,4.90
2018-01-02T00:49:50.398Z,4.80
2018-01-02T00:52:20.854Z,4.70
2018-01-02T00:54:52.379Z,4.80
2018-01-02T00:57:23.443Z,4.80
2018-01-02T00:59:53.679Z,4.80
2018-01-02T01:02:25.996Z,4.80
2018-01-02T01:04:57.157Z,4.80
2018-01-02T01:07:27.994Z,4.70
2018-01-02T01:10:00.422Z,4.80
2018-01-02T01:12:32.252Z,4.90
2018-01-02T01:15:03.815Z,4.90
2018-01-02T01:17:34.226Z,4.90
2018-01-02T01:20:04.278Z,5.00
2018-01-02T01:22:35.216Z,5.00
2018-01-02T01:25:05.716Z,4.80
2018-01-02T01:27:36.291Z,4.80
2018-01-02T01:30:07.264Z,4.60
2018-01-02T01:32:37.345Z,4.50
2018-01-02T01:35:08.230Z,4.60
2018-01-02T01:37:40.001Z,4.50
2018-01-02T01:40:12.231Z,4.80
2018-01-02T01:42:42.886Z,4.80
2018-01-02T01:45:13.567Z,4.90
2018-01-02T01:47:44.420Z,4.90
2018-01-02T01:50:15.900Z,4.80
2018-01-02T01:52:46.428Z,4.70
2018-01-02T01:55:16.908Z,4.80
2018-01-02T01:57:47.418Z,4.70
2018-01-02T02:00:19.068Z,4.50
2018-01-02T02:02:49.601Z,4.40
2018-01-02T02:05:20.442Z,4.50
2018-01-02T02:07:51.496Z,4.40
2018-01-02T02:10:22.041Z,4.40
2018-01-02T02:12:53.339Z,4.60
2018-01-02T02:15:23.771Z,4.60
2018-01-02T02:17:55.014Z,4.60
2018-01-02T02:20:25.903Z,4.60
2018-01-02T02:22:56.462Z,4.60
2018-01-02T02:25:27.733Z,4.60
2018-01-02T02:27:59.259Z,4.60
2018-01-02T02:30:30.127Z,4.60
2018-01-02T02:33:01.996Z,4.50
2018-01-02T02:35:32.378Z,4.50
2018-01-02T02:38:03.270Z,4.70
2018-01-02T02:40:42.611Z,4.70
2018-01-02T02:43:13.027Z,4.80
2018-01-02T02:45:44.668Z,4.80
2018-01-02T02:48:15.070Z,4.60
2018-01-02T02:50:46.006Z,4.50
2018-01-02T02:53:16.238Z,4.40
2018-01-02T02:55:48.180Z,4.40
2018-01-02T02:58:18.845Z,4.40
2018-01-02T03:00:51.133Z,4.40
2018-01-02T03:03:22.047Z,4.50
2018-01-02T03:05:52.914Z,4.40
2018-01-02T03:08:28.459Z,4.30
2018-01-02T03:11:00.756Z,4.40
2018-01-02T03:13:31.426Z,4.40
2018-01-02T03:16:01.963Z,4.40
2018-01-02T03:18:32.688Z,4.50
2018-01-02T03:21:03.505Z,4.50
2018-01-02T03:23:33.682Z,4.40
2018-01-02T03:26:05.078Z,4.40
2018-01-02T03:28:35.211Z,4.40
2018-01-02T03:31:06.823Z,4.50
2018-01-02T03:33:36.894Z,4.60
2018-01-02T03:36:07.344Z,4.70
2018-01-02T03:38:37.747Z,4.90
2018-01-02T03:41:10.726Z,5.00
2018-01-02T03:43:41.681Z,4.90
2018-01-02T03:46:12.028Z,4.90
2018-01-02T03:48:42.140Z,5.20
2018-01-02T03:51:12.660Z,5.60
2018-01-02T03:53:42.757Z,5.80
2018-01-02T03:56:13.087Z,5.80
2018-01-02T03:58:43.146Z,5.70
2018-01-02T04:01:14.139Z,5.70
2018-01-02T04:03:44.198Z,5.60
2018-01-02T04:06:14.688Z,5.80
2018-01-02T04:08:45.864Z,5.80
2018-01-02T04:11:15.995Z,5.80
2018-01-02T04:13:46.156Z,5.90
2018-01-02T04:16:16.715Z,6.00
2018-01-02T04:18:46.855Z,6.00
2018-01-02T04:21:19.601Z,6.00
2018-01-02T04:23:51.122Z,5.90
2018-01-02T04:26:21.544Z,6.00
2018-01-02T04:28:53.109Z,6.20
2018-01-02T04:31:24.164Z,6.20
2018-01-02T04:33:54.840Z,6.30
2018-01-02T04:36:25.969Z,6.40
2018-01-02T04:38:57.140Z,6.40
2018-01-02T04:41:27.556Z,6.50
2018-01-02T04:43:58.035Z,6.50
2018-01-02T04:46:28.596Z,6.60
2018-01-02T04:49:02.856Z,6.60
2018-01-02T04:51:39.276Z,6.60
2018-01-02T04:54:09.868Z,6.60
2018-01-02T04:56:40.321Z,6.70
2018-01-02T04:59:10.548Z,6.80
2018-01-02T05:01:41.048Z,6.90
2018-01-02T05:04:11.619Z,6.90
2018-01-02T05:06:42.229Z,6.90
2018-01-02T05:09:12.658Z,6.90
2018-01-02T05:11:43.324Z,6.90
2018-01-02T05:14:13.682Z,6.90
2018-01-02T05:16:44.770Z,6.90
2018-01-02T05:19:15.540Z,6.90
2018-01-02T05:21:45.726Z,6.90
2018-01-02T05:24:17.193Z,6.90
2018-01-02T05:26:47.393Z,6.80
2018-01-02T05:29:17.773Z,6.90
2018-01-02T05:31:53.428Z,6.80
2018-01-02T05:34:24.241Z,6.80
2018-01-02T05:36:54.400Z,6.80
2018-01-02T05:39:25.683Z,6.90
2018-01-02T05:41:56.231Z,6.80
2018-01-02T05:44:27.123Z,6.90
2018-01-02T05:46:57.224Z,6.90
2018-01-02T05:49:29.076Z,6.90
2018-01-02T05:51:59.216Z,6.90
2018-01-02T05:54:29.647Z,6.80
2018-01-02T05:57:00.915Z,6.80
2018-01-02T05:59:31.254Z,6.90
2018-01-02T06:02:02.854Z,6.90
2018-01-02T06:04:33.707Z,6.80
2018-01-02T06:07:03.847Z,6.90
2018-01-02T06:09:34.333Z,6.80
2018-01-02T06:12:04.809Z,6.80
2018-01-02T06:14:34.916Z,6.80
2018-01-02T06:17:05.072Z,6.80
2018-01-02T06:19:35.195Z,6.70
2018-01-02T06:22:05.716Z,6.60
2018-01-02T06:24:36.938Z,6.50
2018-01-02T06:27:28.563Z,6.50
2018-01-02T06:29:59.857Z,6.60
2018-01-02T06:32:31.920Z,6.50
2018-01-02T06:35:04.194Z,6.50
2018-01-02T06:37:34.822Z,6.60
2018-01-02T06:40:05.008Z,6.60
2018-01-02T06:42:36.248Z,6.60
2018-01-02T06:45:07.749Z,6.40
2018-01-02T06:47:38.027Z,6.30
2018-01-02T06:50:08.275Z,6.30
2018-01-02T06:52:38.400Z,6.20
2018-01-02T06:55:08.877Z,6.20
2018-01-02T06:57:39.468Z,5.90
2018-01-02T07:00:09.999Z,5.80
2018-01-02T07:03:14.309Z,5.80
2018-01-02T07:05:45.422Z,5.80
2018-01-02T07:08:16.708Z,5.90
2018-01-02T07:10:47.711Z,5.90
2018-01-02T07:13:18.578Z,5.80
2018-01-02T07:15:48.659Z,5.80
2018-01-02T07:18:18.940Z,5.90
2018-01-02T07:20:50.157Z,6.00
2018-01-02T07:23:21.211Z,6.00
2018-01-02T07:25:53.638Z,6.10
2018-01-02T07:28:25.777Z,6.10
2018-01-02T07:30:59.339Z,6.30
2018-01-02T07:33:34.594Z,6.30
2018-01-02T07:36:05.152Z,6.30
2018-01-02T07:38:35.417Z,6.30
2018-01-02T07:41:06.246Z,6.20
2018-01-02T07:43:36.743Z,6.30
2018-01-02T07:46:07.552Z,6.30
2018-01-02T07:48:38.178Z,6.50
2018-01-02T07:51:08.658Z,6.50
2018-01-02T07:53:38.754Z,6.40
2018-01-02T07:56:10.519Z,6.40
2018-01-02T07:58:41.495Z,6.30
2018-01-02T08:01:14.340Z,6.40
2018-01-02T08:03:45.486Z,6.40
2018-01-02T08:06:15.704Z,6.40
2018-01-02T08:08:47.704Z,6.50
2018-01-02T08:11:18.306Z,6.60
2018-01-02T08:13:48.640Z,6.60
2018-01-02T08:16:22.520Z,6.50
2018-01-02T08:19:09.691Z,6.50
2018-01-02T08:21:48.044Z,6.50
2018-01-02T08:24:27.851Z,6.60
2018-01-02T08:27:02.575Z,6.50
2018-01-02T08:29:40.083Z,6.60
2018-01-02T08:32:19.348Z,6.70
2018-01-02T08:34:59.866Z,6.60
2018-01-02T08:39:23.628Z,6.60
2018-01-02T08:42:00.336Z,6.70
2018-01-02T08:44:55.999Z,6.70
2018-01-02T08:47:30.308Z,6.70
2018-01-02T08:53:31.442Z,6.70
2018-01-02T08:56:02.664Z,6.70
2018-01-02T08:58:38.068Z,6.80
2018-01-02T09:01:09.814Z,6.80
2018-01-02T09:03:43.427Z,6.80
2018-01-02T09:06:16.088Z,6.70
2018-01-02T09:09:04.325Z,6.70
2018-01-02T09:11:34.910Z,6.70
2018-01-02T09:14:09.900Z,6.70
2018-01-02T09:16:40.474Z,6.70
2018-01-02T09:19:12.878Z,6.80
2018-01-02T09:21:45.676Z,6.90
2018-01-02T09:24:16.787Z,6.90
2018-01-02T09:27:32.078Z,7.00
2018-01-02T09:30:22.684Z,7.10
2018-01-02T09:32:55.517Z,7.20
2018-01-02T09:35:28.229Z,7.20
2018-01-02T09:38:00.783Z,7.10
2018-01-02T09:40:35.069Z,6.90
2018-01-02T09:43:06.439Z,6.70
2018-01-02T09:45:39.162Z,6.10
2018-01-02T09:48:28.195Z,5.70
2018-01-02T09:55:38.186Z,5.60
2018-01-02T09:58:13.022Z,5.40
2018-01-02T10:04:47.423Z,4.30
2018-01-02T10:07:18.500Z,4.30
2018-01-02T10:09:48.818Z,4.50
2018-01-02T10:12:19.327Z,4.40
2018-01-02T10:14:51.054Z,4.30
2018-01-02T10:17:27.672Z,4.30
2018-01-02T10:20:00.701Z,4.30
2018-01-02T10:22:31.724Z,4.40
2018-01-02T10:25:04.526Z,4.20
2018-01-02T10:27:38.305Z,4.20
2018-01-02T10:30:39.096Z,4.20
2018-01-02T10:33:11.337Z,4.30
2018-01-02T10:35:44.714Z,4.50
2018-01-02T10:38:15.034Z,4.70
2018-01-02T10:40:47.932Z,4.80
2018-01-02T10:43:20.840Z,5.00
2018-01-02T10:45:59.402Z,5.00
2018-01-02T10:48:36.310Z,5.20
2018-01-02T10:51:11.047Z,5.10
2018-01-02T10:53:43.901Z,5.20
2018-01-02T10:59:08.453Z,5.20
2018-01-02T11:01:46.129Z,5.40
2018-01-02T11:04:19.740Z,5.50
2018-01-02T11:06:51.920Z,5.70
2018-01-02T11:09:23.495Z,5.60
2018-01-02T11:11:58.560Z,5.50
2018-01-02T11:18:05.643Z,5.90
2018-01-02T11:20:38.016Z,6.00
2018-01-02T11:23:11.067Z,5.90
2018-01-02T11:25:44.357Z,5.90
2018-01-02T11:31:40.367Z,5.90
2018-01-02T11:34:11.341Z,5.90
2018-01-02T11:36:44.976Z,6.00
2018-01-02T11:39:23.457Z,6.10
2018-01-02T11:42:03.451Z,6.10
2018-01-02T11:44:35.520Z,6.00
2018-01-02T11:50:41.983Z,5.60
2018-01-02T11:53:13.856Z,5.40
2018-01-02T11:55:47.162Z,5.40
2018-01-02T11:58:47.142Z,5.30
2018-01-02T12:01:22.080Z,5.30
2018-01-02T12:03:55.792Z,5.30
2018-01-02T12:06:26.749Z,5.30
2018-01-02T12:08:59.374Z,5.20
2018-01-02T12:11:29.778Z,5.10
2018-01-02T12:14:00.038Z,5.00
2018-01-02T12:16:30.703Z,4.70
2018-01-02T12:19:02.097Z,4.70
2018-01-02T12:21:33.568Z,4.40
2018-01-02T12:24:04.293Z,4.40
2018-01-02T12:26:34.753Z,4.30
2018-01-02T12:29:06.999Z,4.20
2018-01-02T12:31:37.436Z,4.20
2018-01-02T12:34:11.696Z,4.50
2018-01-02T12:36:43.071Z,4.50
2018-01-02T12:39:14.518Z,4.60
2018-01-02T12:42:11.065Z,4.60
2018-01-02T12:44:43.339Z,4.60
2018-01-02T12:47:13.829Z,4.60
2018-01-02T12:49:44.908Z,5.10
2018-01-02T12:52:15.937Z,5.10
2018-01-02T12:54:46.395Z,5.20
2018-01-02T12:57:17.391Z,5.30
2018-01-02T12:59:53.981Z,5.30
2018-01-02T13:02:26.882Z,5.40
2018-01-02T13:04:59.377Z,5.50
2018-01-02T13:07:30.788Z,5.60
2018-01-02T13:10:03.238Z,5.60
2018-01-02T13:12:34.137Z,5.60
2018-01-02T13:15:11.755Z,5.60
2018-01-02T13:19:07.245Z,5.50
2018-01-02T13:21:39.613Z,5.60
2018-01-02T13:24:13.198Z,5.70
2018-01-02T13:26:44.979Z,5.60
2018-01-02T13:29:16.469Z,5.50
2018-01-02T13:31:48.489Z,5.40
2018-01-02T13:34:39.573Z,5.40
2018-01-02T13:37:10.350Z,5.40
2018-01-02T13:39:40.792Z,5.50
2018-01-02T13:42:10.932Z,5.60
2018-01-02T13:44:45.315Z,5.40
2018-01-02T13:47:22.935Z,5.40
2018-01-02T13:49:55.087Z,5.50
2018-01-02T13:52:42.228Z,5.50
2018-01-02T13:55:12.992Z,5.30
2018-01-02T13:57:44.056Z,5.10
2018-01-02T14:00:15.552Z,4.90
2018-01-02T14:02:46.250Z,4.90
2018-01-02T14:05:17.723Z,4.70
2018-01-02T14:07:52.616Z,4.70
2018-01-02T14:10:23.339Z,4.80
2018-01-02T14:12:54.995Z,4.60
2018-01-02T14:15:27.174Z,4.50
2018-01-02T14:17:59.418Z,4.50
2018-01-02T14:20:29.482Z,4.40
2018-01-02T14:23:02.147Z,4.40
2018-01-02T14:25:32.617Z,4.40
2018-01-02T14:28:04.056Z,4.50
2018-01-02T14:31:03.511Z,4.70
2018-01-02T14:33:38.274Z,4.80
2018-01-02T14:36:10.410Z,4.90
2018-01-02T14:38:44.036Z,5.00
2018-01-02T14:41:20.874Z,5.00
2018-01-02T14:43:52.794Z,5.00
2018-01-02T14:46:23.833Z,5.00
2018-01-02T14:49:22.540Z,5.20
2018-01-02T14:52:13.873Z,5.30
2018-01-02T14:54:53.987Z,5.30
2018-01-02T14:57:27.292Z,5.50
2018-01-02T15:00:06.802Z,5.40
2018-01-02T15:02:38.207Z,5.20
2018-01-02T15:05:10.655Z,5.10
2018-01-02T15:07:42.278Z,5.10
2018-01-02T15:10:13.321Z,4.90
2018-01-02T15:13:09.959Z,4.80
2018-01-02T15:15:40.853Z,4.80
2018-01-02T15:18:12.549Z,4.70
2018-01-02T15:20:46.254Z,4.80
2018-01-02T15:23:19.276Z,5.00
2018-01-02T15:25:51.279Z,4.90
2018-01-02T15:28:21.645Z,4.90
2018-01-02T15:30:52.651Z,4.80
2018-01-02T15:33:45.649Z,4.80
2018-01-02T15:36:16.208Z,4.90
2018-01-02T15:38:54.752Z,4.80
2018-01-02T15:42:52.051Z,4.80
2018-01-02T15:45:51.235Z,4.70
2018-01-02T15:48:23.278Z,4.40
2018-01-02T15:50:57.391Z,4.30
2018-01-02T15:53:29.444Z,4.30
2018-01-02T15:56:13.767Z,4.40
2018-01-02T15:58:45.449Z,4.50
2018-01-02T16:01:18.326Z,4.50
2018-01-02T16:03:50.208Z,4.50
2018-01-02T16:06:21.243Z,4.60
2018-01-02T16:08:54.803Z,4.60
2018-01-02T16:11:26.353Z,4.80
2018-01-02T16:14:01.055Z,4.90
2018-01-02T16:16:33.264Z,4.40
2018-01-02T16:19:27.280Z,4.30
2018-01-02T16:21:58.823Z,4.30
2018-01-02T16:24:33.397Z,4.20
2018-01-02T16:27:15.931Z,4.20
2018-01-02T16:30:09.864Z,4.30
2018-01-02T16:32:43.166Z,4.60
2018-01-02T16:35:30.500Z,4.60
2018-01-02T16:38:03.368Z,4.60
2018-01-02T16:40:34.074Z,4.60
2018-01-02T16:43:09.937Z,4.30
2018-01-02T16:45:42.660Z,4.20
2018-01-02T16:48:14.119Z,4.20
2018-01-02T16:50:46.287Z,4.20
2018-01-02T16:53:17.362Z,4.00
2018-01-02T16:55:48.759Z,3.80
2018-01-02T16:58:19.805Z,3.80
2018-01-02T17:01:39.623Z,3.80
2018-01-02T17:04:19.128Z,3.90
2018-01-02T17:06:51.560Z,3.90
2018-01-02T17:09:23.540Z,4.10
2018-01-02T17:11:55.798Z,4.20
2018-01-02T17:14:27.006Z,4.20
2018-01-02T17:16:57.564Z,4.20
2018-01-02T17:19:29.136Z,4.10
2018-01-02T17:22:00.103Z,4.00
2018-01-02T17:24:33.132Z,4.00
2018-01-02T17:27:09.057Z,4.10
2018-01-02T17:29:44.937Z,4.20
2018-01-02T17:32:38.759Z,4.10
2018-01-02T17:35:09.084Z,4.10
2018-01-02T17:37:39.551Z,4.00
2018-01-02T17:40:29.363Z,4.00
2018-01-02T17:43:06.106Z,3.90
2018-01-02T17:45:43.583Z,3.70
2018-01-02T17:48:15.152Z,3.70
2018-01-02T17:50:46.424Z,3.80
2018-01-02T17:53:17.633Z,3.90
2018-01-02T17:55:48.736Z,3.70
2018-01-02T17:58:21.580Z,3.70
2018-01-02T18:00:51.920Z,3.70
2018-01-02T18:03:23.463Z,3.80
2018-01-02T18:05:57.761Z,3.80
2018-01-02T18:09:19.687Z,3.80
2018-01-02T18:11:50.594Z,4.00
2018-01-02T18:14:23.295Z,4.00
2018-01-02T18:16:54.460Z,4.00
2018-01-02T18:19:24.921Z,4.00
2018-01-02T18:21:56.828Z,3.90
2018-01-02T18:24:27.237Z,3.90
2018-01-02T18:26:57.406Z,3.90
2018-01-02T18:29:28.405Z,3.90
2018-01-02T18:31:59.213Z,3.90
2018-01-02T18:34:32.564Z,3.90
2018-01-02T18:37:03.154Z,3.90
2018-01-02T18:39:35.415Z,3.90
2018-01-02T18:42:05.801Z,3.90
2018-01-02T18:44:36.489Z,3.80
2018-01-02T18:47:07.760Z,3.90
2018-01-02T18:49:40.422Z,3.80
2018-01-02T18:52:13.720Z,3.80
2018-01-02T18:54:47.912Z,3.80
2018-01-02T18:57:50.165Z,3.90
2018-01-02T19:00:26.041Z,3.90
2018-01-02T19:02:59.586Z,3.70
2018-01-02T19:05:32.936Z,3.80
2018-01-02T19:08:03.609Z,3.70
2018-01-02T19:10:35.851Z,3.80
2018-01-02T19:13:06.540Z,3.80
2018-01-02T19:15:37.831Z,3.60
2018-01-02T19:18:08.892Z,3.60
2018-01-02T19:20:44.666Z,3.70
2018-01-02T19:23:17.829Z,3.70
2018-01-02T19:25:49.850Z,3.70
2018-01-02T19:28:21.932Z,3.70
2018-01-02T19:30:53.536Z,3.60
2018-01-02T19:33:24.410Z,3.60
2018-01-02T19:35:55.281Z,3.40
2018-01-02T19:38:37.774Z,3.50
2018-01-02T19:41:10.305Z,3.60
2018-01-02T19:43:44.946Z,3.60
2018-01-02T19:46:15.403Z,3.70
2018-01-02T19:48:46.119Z,3.60
2018-01-02T19:51:18.467Z,3.70
2018-01-02T19:53:53.994Z,3.70
2018-01-02T19:56:31.974Z,3.30
2018-01-02T19:59:02.544Z,3.30
2018-01-02T20:01:33.388Z,3.30
2018-01-02T20:04:04.342Z,3.40
2018-01-02T20:06:35.215Z,3.40
2018-01-02T20:09:06.585Z,3.40
2018-01-02T20:11:37.973Z,3.40
2018-01-02T20:14:08.464Z,3.40
2018-01-02T20:16:43.561Z,3.50
2018-01-02T20:19:13.704Z,3.40
2018-01-02T20:21:44.183Z,3.30
2018-01-02T20:24:14.911Z,3.20
2018-01-02T20:26:46.317Z,3.20
2018-01-02T20:29:18.560Z,3.20
2018-01-02T20:31:48.923Z,3.30
2018-01-02T20:34:19.695Z,3.40
2018-01-02T20:36:50.387Z,3.20
2018-01-02T20:39:20.984Z,3.10
2018-01-02T20:41:51.651Z,3.30
2018-01-02T20:44:23.004Z,3.10
2018-01-02T20:46:55.686Z,3.20
2018-01-02T20:49:26.351Z,3.10
2018-01-02T20:51:59.475Z,3.10
2018-01-02T20:54:33.883Z,3.10
2018-01-02T20:57:04.183Z,3.20
2018-01-02T20:59:34.862Z,3.20
2018-01-02T21:02:06.780Z,3.20
2018-01-02T21:04:38.363Z,3.30
2018-01-02T21:07:11.199Z,3.10
2018-01-02T21:09:43.711Z,3.30
2018-01-02T21:12:15.800Z,3.30
2018-01-02T21:14:47.023Z,3.40
2018-01-02T21:17:17.680Z,3.40
2018-01-02T21:19:50.461Z,3.40
2018-01-02T21:22:20.703Z,3.40
2018-01-02T21:24:50.845Z,3.50
2018-01-02T21:27:26.736Z,3.50
2018-01-02T21:29:57.819Z,3.50
2018-01-02T21:32:28.436Z,3.60
2018-01-02T21:34:58.796Z,3.60
2018-01-02T21:37:29.372Z,3.50
2018-01-02T21:39:59.689Z,3.50
2018-01-02T21:42:30.644Z,3.50
2018-01-02T21:45:03.246Z,3.50
2018-01-02T21:47:35.861Z,3.50
2018-01-02T21:50:07.803Z,3.50
2018-01-02T21:52:41.053Z,3.50
2018-01-02T21:55:12.259Z,3.40
2018-01-02T21:57:43.073Z,3.40
2018-01-02T22:00:13.594Z,3.40
2018-01-02T22:02:45.849Z,3.50
2018-01-02T22:05:18.773Z,3.40
2018-01-02T22:07:50.715Z,3.50
2018-01-02T22:10:27.544Z,3.40
2018-01-02T22:12:58.700Z,3.50
2018-01-02T22:15:38.027Z,3.50
2018-01-02T22:20:47.471Z,3.60
2018-01-02T22:23:19.031Z,3.60
2018-01-02T22:25:49.479Z,3.60
2018-01-02T22:28:20.791Z,3.70
2018-01-02T22:30:51.199Z,3.70
2018-01-02T22:33:21.360Z,3.80
2018-01-02T22:35:51.675Z,3.80
2018-01-02T22:38:22.547Z,3.80
2018-01-02T22:40:53.608Z,3.90
2018-01-02T22:43:25.034Z,3.90
2018-01-02T22:45:59.872Z,3.90
2018-01-02T22:48:33.393Z,3.90
2018-01-02T22:51:06.972Z,3.90
2018-01-02T22:53:39.336Z,3.90
2018-01-02T22:56:13.400Z,3.70
2018-01-02T22:58:43.714Z,3.70
2018-01-02T23:01:14.366Z,3.70
2018-01-02T23:03:45.087Z,3.70
2018-01-02T23:06:16.574Z,3.70
2018-01-02T23:08:47.169Z,3.70
2018-01-02T23:11:17.534Z,3.80
2018-01-02T23:14:33.627Z,3.80
2018-01-02T23:17:05.070Z,3.70
2018-01-02T23:19:35.951Z,3.70
2018-01-02T23:22:07.925Z,3.60
2018-01-02T23:24:42.997Z,3.70
2018-01-02T23:27:20.218Z,3.90
2018-01-02T23:29:53.469Z,3.80
2018-01-02T23:32:46.223Z,3.90
2018-01-02T23:35:24.335Z,3.90
2018-01-02T23:37:56.639Z,3.90
2018-01-02T23:40:34.707Z,3.90
2018-01-02T23:43:06.221Z,3.90
2018-01-02T23:45:40.110Z,3.80
2018-01-02T23:48:10.423Z,3.80
2018-01-02T23:50:40.919Z,3.90
2018-01-02T23:53:12.459Z,3.90
2018-01-02T23:55:43.476Z,3.90
2018-01-02T23:58:14.147Z,3.90
